sensor_id;sensor_type;location;lat;lon;timestamp;temperature;humidity
41876;DHT22;27555;50.808;4.402;2023-01-24T00:00:24;3.70;99.90
41876;DHT22;27555;50.808;4.402;2023-01-24T00:02:51;3.80;99.90
41876;DHT22;27555;50.808;4.402;2023-01-24T00:05:16;3.90;99.90
41876;DHT22;27555;50.808;4.402;2023-01-24T00:07:42;3.80;99.90
41876;DHT22;27555;50.808;4.402;2023-01-24T00:10:09;3.80;99.90
41876;DHT22;27555;50.808;4.402;2023-01-24T00:12:36;3.60;99.90
41876;DHT22;27555;50.808;4.402;2023-01-24T00:15:03;3.50;99.90
41876;DHT22;27555;50.808;4.402;2023-01-24T00:17:29;3.80;99.90
41876;DHT22;27555;50.808;4.402;2023-01-24T00:19:54;4.20;99.90
41876;DHT22;27555;50.808;4.402;2023-01-24T00:22:20;4.00;99.90
41876;DHT22;27555;50.808;4.402;2023-01-24T00:24:47;4.20;99.90
41876;DHT22;27555;50.808;4.402;2023-01-24T00:27:14;4.00;99.90
41876;DHT22;27555;50.808;4.402;2023-01-24T00:29:40;4.00;99.90
41876;DHT22;27555;50.808;4.402;2023-01-24T00:32:06;3.80;99.90
41876;DHT22;27555;50.808;4.402;2023-01-24T00:34:32;3.90;99.90
41876;DHT22;27555;50.808;4.402;2023-01-24T00:36:58;3.80;99.90
41876;DHT22;27555;50.808;4.402;2023-01-24T00:39:25;3.70;99.90
41876;DHT22;27555;50.808;4.402;2023-01-24T00:41:52;3.60;99.90
41876;DHT22;27555;50.808;4.402;2023-01-24T00:44:18;3.70;99.90
41876;DHT22;27555;50.808;4.402;2023-01-24T00:46:44;3.70;99.90
41876;DHT22;27555;50.808;4.402;2023-01-24T00:49:11;3.80;99.90
41876;DHT22;27555;50.808;4.402;2023-01-24T00:51:36;4.10;99.90
41876;DHT22;27555;50.808;4.402;2023-01-24T00:54:02;4.10;99.90
41876;DHT22;27555;50.808;4.402;2023-01-24T00:56:29;4.10;99.90
41876;DHT22;27555;50.808;4.402;2023-01-24T00:58:54;4.40;99.90
41876;DHT22;27555;50.808;4.402;2023-01-24T01:01:21;4.50;99.90
41876;DHT22;27555;50.808;4.402;2023-01-24T01:03:47;4.60;99.90
41876;DHT22;27555;50.808;4.402;2023-01-24T01:06:15;4.40;99.90
41876;DHT22;27555;50.808;4.402;2023-01-24T01:08:41;4.20;99.90
41876;DHT22;27555;50.808;4.402;2023-01-24T01:11:09;4.10;99.90
41876;DHT22;27555;50.808;4.402;2023-01-24T01:13:35;4.30;99.90
41876;DHT22;27555;50.808;4.402;2023-01-24T01:16:10;4.30;99.90
41876;DHT22;27555;50.808;4.402;2023-01-24T01:18:37;4.20;99.90
41876;DHT22;27555;50.808;4.402;2023-01-24T01:21:03;4.20;99.90
41876;DHT22;27555;50.808;4.402;2023-01-24T01:23:29;4.20;99.90
41876;DHT22;27555;50.808;4.402;2023-01-24T01:26:02;4.50;99.90
41876;DHT22;27555;50.808;4.402;2023-01-24T01:28:32;4.30;99.90
41876;DHT22;27555;50.808;4.402;2023-01-24T01:30:58;4.20;99.90
41876;DHT22;27555;50.808;4.402;2023-01-24T01:33:25;4.10;99.90
41876;DHT22;27555;50.808;4.402;2023-01-24T01:35:51;4.10;99.90
41876;DHT22;27555;50.808;4.402;2023-01-24T01:38:17;4.00;99.90
41876;DHT22;27555;50.808;4.402;2023-01-24T01:40:43;3.90;99.90
41876;DHT22;27555;50.808;4.402;2023-01-24T01:43:19;4.00;99.90
41876;DHT22;27555;50.808;4.402;2023-01-24T01:45:47;4.10;99.90
41876;DHT22;27555;50.808;4.402;2023-01-24T01:48:42;4.20;99.90
41876;DHT22;27555;50.808;4.402;2023-01-24T01:54:19;4.00;99.90
41876;DHT22;27555;50.808;4.402;2023-01-24T01:59:29;3.90;99.90
41876;DHT22;27555;50.808;4.402;2023-01-24T02:02:00;3.80;99.90
41876;DHT22;27555;50.808;4.402;2023-01-24T02:04:31;3.60;99.90
41876;DHT22;27555;50.808;4.402;2023-01-24T02:09:31;3.60;99.90
41876;DHT22;27555;50.808;4.402;2023-01-24T02:12:03;4.00;99.90
41876;DHT22;27555;50.808;4.402;2023-01-24T02:14:30;3.90;99.90
41876;DHT22;27555;50.808;4.402;2023-01-24T02:17:19;3.80;99.90
41876;DHT22;27555;50.808;4.402;2023-01-24T02:28:11;3.90;99.90
41876;DHT22;27555;50.808;4.402;2023-01-24T02:30:38;3.80;99.90
41876;DHT22;27555;50.808;4.402;2023-01-24T02:33:16;3.60;99.90
41876;DHT22;27555;50.808;4.402;2023-01-24T02:35:42;3.80;99.90
41876;DHT22;27555;50.808;4.402;2023-01-24T02:38:28;4.10;99.90
41876;DHT22;27555;50.808;4.402;2023-01-24T02:40:57;4.10;99.90
41876;DHT22;27555;50.808;4.402;2023-01-24T02:43:34;3.90;99.90
41876;DHT22;27555;50.808;4.402;2023-01-24T02:46:00;3.80;99.90
41876;DHT22;27555;50.808;4.402;2023-01-24T02:48:27;3.70;99.90
41876;DHT22;27555;50.808;4.402;2023-01-24T02:50:55;4.10;99.90
41876;DHT22;27555;50.808;4.402;2023-01-24T02:53:39;4.10;99.90
41876;DHT22;27555;50.808;4.402;2023-01-24T02:56:07;4.40;99.90
41876;DHT22;27555;50.808;4.402;2023-01-24T02:58:54;4.80;99.90
41876;DHT22;27555;50.808;4.402;2023-01-24T03:01:22;4.20;99.90
41876;DHT22;27555;50.808;4.402;2023-01-24T03:03:48;4.10;99.90
41876;DHT22;27555;50.808;4.402;2023-01-24T03:06:15;3.90;99.90
41876;DHT22;27555;50.808;4.402;2023-01-24T03:08:42;3.80;99.90
41876;DHT22;27555;50.808;4.402;2023-01-24T03:11:09;3.90;99.90
41876;DHT22;27555;50.808;4.402;2023-01-24T03:13:35;4.30;99.90
41876;DHT22;27555;50.808;4.402;2023-01-24T03:16:20;4.40;99.90
41876;DHT22;27555;50.808;4.402;2023-01-24T03:19:05;4.30;99.90
41876;DHT22;27555;50.808;4.402;2023-01-24T03:21:50;4.10;99.90
41876;DHT22;27555;50.808;4.402;2023-01-24T03:24:34;4.00;99.90
41876;DHT22;27555;50.808;4.402;2023-01-24T03:27:19;4.20;99.90
41876;DHT22;27555;50.808;4.402;2023-01-24T03:30:06;4.10;99.90
41876;DHT22;27555;50.808;4.402;2023-01-24T03:32:50;4.00;99.90
41876;DHT22;27555;50.808;4.402;2023-01-24T03:35:34;3.80;99.90
41876;DHT22;27555;50.808;4.402;2023-01-24T03:38:00;3.70;99.90
41876;DHT22;27555;50.808;4.402;2023-01-24T03:40:44;3.90;99.90
41876;DHT22;27555;50.808;4.402;2023-01-24T03:43:11;4.00;99.90
41876;DHT22;27555;50.808;4.402;2023-01-24T03:45:38;4.10;99.90
41876;DHT22;27555;50.808;4.402;2023-01-24T03:48:09;4.00;99.90
41876;DHT22;27555;50.808;4.402;2023-01-24T03:50:39;3.90;99.90
41876;DHT22;27555;50.808;4.402;2023-01-24T03:53:26;3.90;99.90
41876;DHT22;27555;50.808;4.402;2023-01-24T03:55:54;3.80;99.90
41876;DHT22;27555;50.808;4.402;2023-01-24T03:58:21;3.80;99.90
41876;DHT22;27555;50.808;4.402;2023-01-24T04:00:47;4.00;99.90
41876;DHT22;27555;50.808;4.402;2023-01-24T04:03:13;4.10;99.90
41876;DHT22;27555;50.808;4.402;2023-01-24T04:05:38;4.00;99.90
41876;DHT22;27555;50.808;4.402;2023-01-24T04:08:05;3.80;99.90
41876;DHT22;27555;50.808;4.402;2023-01-24T04:10:31;3.90;99.90
41876;DHT22;27555;50.808;4.402;2023-01-24T04:12:59;3.80;99.90
41876;DHT22;27555;50.808;4.402;2023-01-24T04:15:27;3.60;99.90
41876;DHT22;27555;50.808;4.402;2023-01-24T04:17:58;3.50;99.90
41876;DHT22;27555;50.808;4.402;2023-01-24T04:20:26;3.70;99.90
41876;DHT22;27555;50.808;4.402;2023-01-24T04:22:54;3.80;99.90
41876;DHT22;27555;50.808;4.402;2023-01-24T04:25:21;3.70;99.90
41876;DHT22;27555;50.808;4.402;2023-01-24T04:27:47;3.60;99.90
41876;DHT22;27555;50.808;4.402;2023-01-24T04:30:16;3.50;99.90
41876;DHT22;27555;50.808;4.402;2023-01-24T04:32:42;3.50;99.90
41876;DHT22;27555;50.808;4.402;2023-01-24T04:35:09;3.70;99.90
41876;DHT22;27555;50.808;4.402;2023-01-24T04:37:39;3.80;99.90
41876;DHT22;27555;50.808;4.402;2023-01-24T04:40:06;3.90;99.90
41876;DHT22;27555;50.808;4.402;2023-01-24T04:42:32;3.90;99.90
41876;DHT22;27555;50.808;4.402;2023-01-24T04:44:58;3.70;99.90
41876;DHT22;27555;50.808;4.402;2023-01-24T04:47:24;3.50;99.90
41876;DHT22;27555;50.808;4.402;2023-01-24T04:49:50;3.70;99.90
41876;DHT22;27555;50.808;4.402;2023-01-24T04:52:15;3.70;99.90
41876;DHT22;27555;50.808;4.402;2023-01-24T04:54:42;3.90;99.90
41876;DHT22;27555;50.808;4.402;2023-01-24T04:57:11;4.20;99.90
41876;DHT22;27555;50.808;4.402;2023-01-24T04:59:37;4.20;99.90
41876;DHT22;27555;50.808;4.402;2023-01-24T05:02:03;4.00;99.90
41876;DHT22;27555;50.808;4.402;2023-01-24T05:04:28;4.00;99.90
41876;DHT22;27555;50.808;4.402;2023-01-24T05:06:54;4.10;99.90
41876;DHT22;27555;50.808;4.402;2023-01-24T05:09:21;4.00;99.90
41876;DHT22;27555;50.808;4.402;2023-01-24T05:11:46;4.30;99.90
41876;DHT22;27555;50.808;4.402;2023-01-24T05:14:12;4.60;99.90
41876;DHT22;27555;50.808;4.402;2023-01-24T05:16:38;4.60;99.90
41876;DHT22;27555;50.808;4.402;2023-01-24T05:19:05;4.60;99.90
41876;DHT22;27555;50.808;4.402;2023-01-24T05:21:31;4.70;99.90
41876;DHT22;27555;50.808;4.402;2023-01-24T05:23:58;4.50;99.90
41876;DHT22;27555;50.808;4.402;2023-01-24T05:26:25;4.30;99.90
41876;DHT22;27555;50.808;4.402;2023-01-24T05:28:52;4.20;99.90
41876;DHT22;27555;50.808;4.402;2023-01-24T05:31:18;4.00;99.90
41876;DHT22;27555;50.808;4.402;2023-01-24T05:33:44;3.90;99.90
41876;DHT22;27555;50.808;4.402;2023-01-24T05:36:14;3.80;99.90
41876;DHT22;27555;50.808;4.402;2023-01-24T05:38:41;3.60;99.90
41876;DHT22;27555;50.808;4.402;2023-01-24T05:41:11;3.40;99.90
41876;DHT22;27555;50.808;4.402;2023-01-24T05:43:37;4.00;99.90
41876;DHT22;27555;50.808;4.402;2023-01-24T05:46:10;3.80;99.90
41876;DHT22;27555;50.808;4.402;2023-01-24T05:48:43;3.90;99.90
41876;DHT22;27555;50.808;4.402;2023-01-24T05:51:14;4.10;99.90
41876;DHT22;27555;50.808;4.402;2023-01-24T05:53:40;3.90;99.90
41876;DHT22;27555;50.808;4.402;2023-01-24T05:56:10;4.00;99.90
41876;DHT22;27555;50.808;4.402;2023-01-24T05:58:40;4.20;99.90
41876;DHT22;27555;50.808;4.402;2023-01-24T06:01:25;3.90;99.90
41876;DHT22;27555;50.808;4.402;2023-01-24T06:03:52;3.80;99.90
41876;DHT22;27555;50.808;4.402;2023-01-24T06:06:20;4.10;99.90
41876;DHT22;27555;50.808;4.402;2023-01-24T06:08:46;4.30;99.90
41876;DHT22;27555;50.808;4.402;2023-01-24T06:11:21;4.20;99.90
41876;DHT22;27555;50.808;4.402;2023-01-24T06:13:48;4.10;99.90
41876;DHT22;27555;50.808;4.402;2023-01-24T06:16:16;4.10;99.90
41876;DHT22;27555;50.808;4.402;2023-01-24T06:18:43;3.90;99.90
41876;DHT22;27555;50.808;4.402;2023-01-24T06:24:01;4.10;99.90
41876;DHT22;27555;50.808;4.402;2023-01-24T06:26:27;4.10;99.90
41876;DHT22;27555;50.808;4.402;2023-01-24T06:28:54;4.00;99.90
41876;DHT22;27555;50.808;4.402;2023-01-24T06:31:39;3.90;99.90
41876;DHT22;27555;50.808;4.402;2023-01-24T06:37:20;3.70;99.90
41876;DHT22;27555;50.808;4.402;2023-01-24T06:39:52;4.00;99.90
41876;DHT22;27555;50.808;4.402;2023-01-24T06:42:21;4.00;99.90
41876;DHT22;27555;50.808;4.402;2023-01-24T06:44:47;4.00;99.90
41876;DHT22;27555;50.808;4.402;2023-01-24T06:47:14;3.90;99.90
41876;DHT22;27555;50.808;4.402;2023-01-24T06:49:40;4.10;99.90
41876;DHT22;27555;50.808;4.402;2023-01-24T06:52:06;4.10;99.90
41876;DHT22;27555;50.808;4.402;2023-01-24T06:54:35;3.90;99.90
41876;DHT22;27555;50.808;4.402;2023-01-24T06:57:02;3.80;99.90
41876;DHT22;27555;50.808;4.402;2023-01-24T06:59:28;3.80;99.90
41876;DHT22;27555;50.808;4.402;2023-01-24T07:01:57;3.70;99.90
41876;DHT22;27555;50.808;4.402;2023-01-24T07:04:23;3.50;99.90
41876;DHT22;27555;50.808;4.402;2023-01-24T07:06:49;3.90;99.90
41876;DHT22;27555;50.808;4.402;2023-01-24T07:09:21;3.90;99.90
41876;DHT22;27555;50.808;4.402;2023-01-24T07:11:46;3.80;99.90
41876;DHT22;27555;50.808;4.402;2023-01-24T07:14:18;3.60;99.90
41876;DHT22;27555;50.808;4.402;2023-01-24T07:16:44;3.50;99.90
41876;DHT22;27555;50.808;4.402;2023-01-24T07:19:14;3.60;99.90
41876;DHT22;27555;50.808;4.402;2023-01-24T07:21:41;3.80;99.90
41876;DHT22;27555;50.808;4.402;2023-01-24T07:24:13;3.70;99.90
41876;DHT22;27555;50.808;4.402;2023-01-24T07:26:39;4.10;99.90
41876;DHT22;27555;50.808;4.402;2023-01-24T07:29:04;4.10;99.90
41876;DHT22;27555;50.808;4.402;2023-01-24T07:31:30;3.70;99.90
41876;DHT22;27555;50.808;4.402;2023-01-24T07:33:56;3.70;99.90
41876;DHT22;27555;50.808;4.402;2023-01-24T07:36:21;3.60;99.90
41876;DHT22;27555;50.808;4.402;2023-01-24T07:38:47;3.40;99.90
41876;DHT22;27555;50.808;4.402;2023-01-24T07:41:16;3.50;99.90
41876;DHT22;27555;50.808;4.402;2023-01-24T07:43:41;3.90;99.90
41876;DHT22;27555;50.808;4.402;2023-01-24T07:46:07;3.90;99.90
41876;DHT22;27555;50.808;4.402;2023-01-24T07:48:32;3.90;99.90
41876;DHT22;27555;50.808;4.402;2023-01-24T07:50:59;3.90;99.90
41876;DHT22;27555;50.808;4.402;2023-01-24T07:53:25;4.20;99.90
41876;DHT22;27555;50.808;4.402;2023-01-24T07:55:51;4.50;99.90
41876;DHT22;27555;50.808;4.402;2023-01-24T07:58:17;4.10;99.90
41876;DHT22;27555;50.808;4.402;2023-01-24T08:00:42;3.90;99.90
41876;DHT22;27555;50.808;4.402;2023-01-24T08:03:10;4.00;99.90
41876;DHT22;27555;50.808;4.402;2023-01-24T08:05:39;3.70;99.90
41876;DHT22;27555;50.808;4.402;2023-01-24T08:08:05;3.80;99.90
41876;DHT22;27555;50.808;4.402;2023-01-24T08:10:31;3.90;99.90
41876;DHT22;27555;50.808;4.402;2023-01-24T08:12:57;3.70;99.90
41876;DHT22;27555;50.808;4.402;2023-01-24T08:15:23;3.50;99.90
41876;DHT22;27555;50.808;4.402;2023-01-24T08:17:48;3.50;99.90
41876;DHT22;27555;50.808;4.402;2023-01-24T08:20:14;3.90;99.90
41876;DHT22;27555;50.808;4.402;2023-01-24T08:22:41;4.30;99.90
41876;DHT22;27555;50.808;4.402;2023-01-24T08:25:07;4.50;99.90
41876;DHT22;27555;50.808;4.402;2023-01-24T08:27:33;4.30;99.90
41876;DHT22;27555;50.808;4.402;2023-01-24T08:29:59;4.30;99.90
41876;DHT22;27555;50.808;4.402;2023-01-24T08:32:24;4.10;99.90
41876;DHT22;27555;50.808;4.402;2023-01-24T08:34:50;4.00;99.90
41876;DHT22;27555;50.808;4.402;2023-01-24T08:37:16;3.80;99.90
41876;DHT22;27555;50.808;4.402;2023-01-24T08:39:42;4.10;99.90
41876;DHT22;27555;50.808;4.402;2023-01-24T08:42:08;3.80;99.90
41876;DHT22;27555;50.808;4.402;2023-01-24T08:44:34;3.80;99.90
41876;DHT22;27555;50.808;4.402;2023-01-24T08:47:00;4.00;99.90
41876;DHT22;27555;50.808;4.402;2023-01-24T08:49:25;4.10;99.90
41876;DHT22;27555;50.808;4.402;2023-01-24T08:51:51;3.80;99.90
41876;DHT22;27555;50.808;4.402;2023-01-24T08:54:27;3.80;99.90
41876;DHT22;27555;50.808;4.402;2023-01-24T08:56:52;4.00;99.90
41876;DHT22;27555;50.808;4.402;2023-01-24T08:59:18;4.00;99.90
41876;DHT22;27555;50.808;4.402;2023-01-24T09:01:44;3.80;99.90
41876;DHT22;27555;50.808;4.402;2023-01-24T09:04:11;3.80;99.90
41876;DHT22;27555;50.808;4.402;2023-01-24T09:06:39;4.00;99.90
41876;DHT22;27555;50.808;4.402;2023-01-24T09:09:05;4.20;99.90
41876;DHT22;27555;50.808;4.402;2023-01-24T09:11:31;4.40;99.90
41876;DHT22;27555;50.808;4.402;2023-01-24T09:13:57;4.30;99.90
41876;DHT22;27555;50.808;4.402;2023-01-24T09:16:23;3.90;99.90
41876;DHT22;27555;50.808;4.402;2023-01-24T09:18:49;3.80;99.90
41876;DHT22;27555;50.808;4.402;2023-01-24T09:21:17;4.10;99.90
41876;DHT22;27555;50.808;4.402;2023-01-24T09:23:43;4.40;99.90
41876;DHT22;27555;50.808;4.402;2023-01-24T09:26:08;4.40;99.90
41876;DHT22;27555;50.808;4.402;2023-01-24T09:28:34;4.00;99.90
41876;DHT22;27555;50.808;4.402;2023-01-24T09:31:00;3.70;99.90
41876;DHT22;27555;50.808;4.402;2023-01-24T09:33:27;3.60;99.90
41876;DHT22;27555;50.808;4.402;2023-01-24T09:36:01;3.30;99.90
41876;DHT22;27555;50.808;4.402;2023-01-24T09:38:29;3.40;99.90
41876;DHT22;27555;50.808;4.402;2023-01-24T09:43:56;3.50;99.90
41876;DHT22;27555;50.808;4.402;2023-01-24T09:46:31;3.60;99.90
41876;DHT22;27555;50.808;4.402;2023-01-24T09:49:17;3.70;99.90
41876;DHT22;27555;50.808;4.402;2023-01-24T09:51:51;3.60;99.90
41876;DHT22;27555;50.808;4.402;2023-01-24T09:54:38;3.60;99.90
41876;DHT22;27555;50.808;4.402;2023-01-24T09:57:23;3.60;99.90
41876;DHT22;27555;50.808;4.402;2023-01-24T09:59:53;3.60;99.90
41876;DHT22;27555;50.808;4.402;2023-01-24T10:02:22;3.70;99.90
41876;DHT22;27555;50.808;4.402;2023-01-24T10:04:50;3.40;99.90
41876;DHT22;27555;50.808;4.402;2023-01-24T10:10:14;3.90;99.90
41876;DHT22;27555;50.808;4.402;2023-01-24T10:15:54;4.40;99.90
41876;DHT22;27555;50.808;4.402;2023-01-24T10:23:42;4.90;99.90
41876;DHT22;27555;50.808;4.402;2023-01-24T10:26:21;4.80;99.90
41876;DHT22;27555;50.808;4.402;2023-01-24T10:28:53;4.50;99.90
41876;DHT22;27555;50.808;4.402;2023-01-24T10:31:25;4.40;99.90
41876;DHT22;27555;50.808;4.402;2023-01-24T10:33:59;4.50;99.90
41876;DHT22;27555;50.808;4.402;2023-01-24T10:36:44;4.30;99.90
41876;DHT22;27555;50.808;4.402;2023-01-24T10:39:10;4.50;99.90
41876;DHT22;27555;50.808;4.402;2023-01-24T10:41:37;4.70;99.90
41876;DHT22;27555;50.808;4.402;2023-01-24T10:44:15;4.30;99.90
41876;DHT22;27555;50.808;4.402;2023-01-24T10:47:12;3.90;99.90
41876;DHT22;27555;50.808;4.402;2023-01-24T10:49:48;3.80;99.90
41876;DHT22;27555;50.808;4.402;2023-01-24T10:52:20;3.80;99.90
41876;DHT22;27555;50.808;4.402;2023-01-24T11:02:50;4.20;99.90
41876;DHT22;27555;50.808;4.402;2023-01-24T11:05:18;4.50;99.90
41876;DHT22;27555;50.808;4.402;2023-01-24T11:07:59;4.90;99.90
41876;DHT22;27555;50.808;4.402;2023-01-24T11:10:30;4.80;99.90
41876;DHT22;27555;50.808;4.402;2023-01-24T11:12:58;4.90;99.90
41876;DHT22;27555;50.808;4.402;2023-01-24T11:15:27;4.90;99.90
41876;DHT22;27555;50.808;4.402;2023-01-24T11:18:12;4.90;99.90
41876;DHT22;27555;50.808;4.402;2023-01-24T11:20:38;5.00;99.90
41876;DHT22;27555;50.808;4.402;2023-01-24T11:23:16;5.10;99.90
41876;DHT22;27555;50.808;4.402;2023-01-24T11:25:52;5.00;99.90
41876;DHT22;27555;50.808;4.402;2023-01-24T11:28:29;5.20;99.90
41876;DHT22;27555;50.808;4.402;2023-01-24T11:30:58;5.20;99.90
41876;DHT22;27555;50.808;4.402;2023-01-24T11:33:40;4.90;99.90
41876;DHT22;27555;50.808;4.402;2023-01-24T11:50:15;4.90;99.90
41876;DHT22;27555;50.808;4.402;2023-01-24T12:03:48;4.10;99.90
41876;DHT22;27555;50.808;4.402;2023-01-24T12:06:49;3.90;99.90
41876;DHT22;27555;50.808;4.402;2023-01-24T12:09:22;3.80;99.90
41876;DHT22;27555;50.808;4.402;2023-01-24T12:14:46;3.70;99.90
41876;DHT22;27555;50.808;4.402;2023-01-24T12:17:31;3.80;99.90
41876;DHT22;27555;50.808;4.402;2023-01-24T12:22:46;4.40;99.90
41876;DHT22;27555;50.808;4.402;2023-01-24T12:25:34;4.90;99.90
41876;DHT22;27555;50.808;4.402;2023-01-24T12:28:06;4.90;99.90
41876;DHT22;27555;50.808;4.402;2023-01-24T12:30:43;4.70;99.90
41876;DHT22;27555;50.808;4.402;2023-01-24T12:36:14;4.70;99.90
41876;DHT22;27555;50.808;4.402;2023-01-24T12:38:46;4.80;99.90
41876;DHT22;27555;50.808;4.402;2023-01-24T12:43:59;5.00;99.90
41876;DHT22;27555;50.808;4.402;2023-01-24T12:46:38;4.40;99.90
41876;DHT22;27555;50.808;4.402;2023-01-24T12:51:58;4.40;99.90
41876;DHT22;27555;50.808;4.402;2023-01-24T12:54:34;4.50;99.90
41876;DHT22;27555;50.808;4.402;2023-01-24T12:57:25;4.60;99.90
41876;DHT22;27555;50.808;4.402;2023-01-24T12:59:52;4.50;99.90
41876;DHT22;27555;50.808;4.402;2023-01-24T13:02:36;4.80;99.90
41876;DHT22;27555;50.808;4.402;2023-01-24T13:11:09;5.10;99.90
41876;DHT22;27555;50.808;4.402;2023-01-24T13:13:45;4.80;99.90
41876;DHT22;27555;50.808;4.402;2023-01-24T13:19:22;4.10;99.90
41876;DHT22;27555;50.808;4.402;2023-01-24T13:24:55;4.50;99.90
41876;DHT22;27555;50.808;4.402;2023-01-24T13:27:29;4.40;99.90
41876;DHT22;27555;50.808;4.402;2023-01-24T13:32:25;4.20;99.90
41876;DHT22;27555;50.808;4.402;2023-01-24T13:34:54;3.90;99.90
41876;DHT22;27555;50.808;4.402;2023-01-24T13:37:28;3.90;99.90
41876;DHT22;27555;50.808;4.402;2023-01-24T13:42:38;3.70;99.90
41876;DHT22;27555;50.808;4.402;2023-01-24T13:47:50;3.90;99.90
41876;DHT22;27555;50.808;4.402;2023-01-24T13:50:18;3.70;99.90
41876;DHT22;27555;50.808;4.402;2023-01-24T13:52:58;3.80;99.90
41876;DHT22;27555;50.808;4.402;2023-01-24T14:00:48;4.40;99.90
41876;DHT22;27555;50.808;4.402;2023-01-24T14:03:33;4.20;99.90
41876;DHT22;27555;50.808;4.402;2023-01-24T14:06:07;4.00;99.90
41876;DHT22;27555;50.808;4.402;2023-01-24T14:08:40;4.00;99.90
41876;DHT22;27555;50.808;4.402;2023-01-24T14:18:50;4.20;99.90
41876;DHT22;27555;50.808;4.402;2023-01-24T14:21:23;4.40;99.90
41876;DHT22;27555;50.808;4.402;2023-01-24T14:23:56;4.30;99.90
41876;DHT22;27555;50.808;4.402;2023-01-24T14:26:26;4.60;99.90
41876;DHT22;27555;50.808;4.402;2023-01-24T14:28:57;4.80;99.90
41876;DHT22;27555;50.808;4.402;2023-01-24T14:31:28;4.30;99.90
41876;DHT22;27555;50.808;4.402;2023-01-24T14:36:41;4.80;99.90
41876;DHT22;27555;50.808;4.402;2023-01-24T14:39:25;5.00;99.90
41876;DHT22;27555;50.808;4.402;2023-01-24T14:44:27;5.00;99.90
41876;DHT22;27555;50.808;4.402;2023-01-24T14:46:55;4.90;99.90
41876;DHT22;27555;50.808;4.402;2023-01-24T14:49:33;4.80;99.90
41876;DHT22;27555;50.808;4.402;2023-01-24T14:52:00;4.70;99.90
41876;DHT22;27555;50.808;4.402;2023-01-24T14:54:26;4.70;99.90
41876;DHT22;27555;50.808;4.402;2023-01-24T14:56:52;4.50;99.90
41876;DHT22;27555;50.808;4.402;2023-01-24T14:59:19;4.50;99.90
41876;DHT22;27555;50.808;4.402;2023-01-24T15:01:49;4.10;99.90
41876;DHT22;27555;50.808;4.402;2023-01-24T15:04:22;3.90;99.90
41876;DHT22;27555;50.808;4.402;2023-01-24T15:07:09;3.90;99.90
41876;DHT22;27555;50.808;4.402;2023-01-24T15:09:36;3.90;99.90
41876;DHT22;27555;50.808;4.402;2023-01-24T15:12:25;4.30;99.90
41876;DHT22;27555;50.808;4.402;2023-01-24T15:14:52;4.30;99.90
41876;DHT22;27555;50.808;4.402;2023-01-24T15:17:22;4.30;99.90
41876;DHT22;27555;50.808;4.402;2023-01-24T15:19:50;4.40;99.90
41876;DHT22;27555;50.808;4.402;2023-01-24T15:22:22;4.70;99.90
41876;DHT22;27555;50.808;4.402;2023-01-24T15:24:58;4.70;99.90
41876;DHT22;27555;50.808;4.402;2023-01-24T15:35:38;4.60;99.90
41876;DHT22;27555;50.808;4.402;2023-01-24T15:40:35;4.60;99.90
41876;DHT22;27555;50.808;4.402;2023-01-24T15:43:02;4.40;99.90
41876;DHT22;27555;50.808;4.402;2023-01-24T15:45:52;4.40;99.90
41876;DHT22;27555;50.808;4.402;2023-01-24T15:48:56;4.60;99.90
41876;DHT22;27555;50.808;4.402;2023-01-24T15:51:35;4.70;99.90
41876;DHT22;27555;50.808;4.402;2023-01-24T15:54:01;4.70;99.90
41876;DHT22;27555;50.808;4.402;2023-01-24T15:56:28;4.50;99.90
41876;DHT22;27555;50.808;4.402;2023-01-24T15:58:54;4.80;99.90
41876;DHT22;27555;50.808;4.402;2023-01-24T16:01:20;4.40;99.90
41876;DHT22;27555;50.808;4.402;2023-01-24T16:03:46;5.00;99.90
41876;DHT22;27555;50.808;4.402;2023-01-24T16:06:11;5.00;99.90
41876;DHT22;27555;50.808;4.402;2023-01-24T16:08:37;4.60;99.90
41876;DHT22;27555;50.808;4.402;2023-01-24T16:11:03;4.30;99.90
41876;DHT22;27555;50.808;4.402;2023-01-24T16:15:59;4.50;99.90
41876;DHT22;27555;50.808;4.402;2023-01-24T16:18:25;4.60;99.90
41876;DHT22;27555;50.808;4.402;2023-01-24T16:20:51;4.80;99.90
41876;DHT22;27555;50.808;4.402;2023-01-24T16:23:16;4.60;99.90
41876;DHT22;27555;50.808;4.402;2023-01-24T16:25:42;4.70;99.90
41876;DHT22;27555;50.808;4.402;2023-01-24T16:28:20;4.80;99.90
41876;DHT22;27555;50.808;4.402;2023-01-24T16:30:46;4.50;99.90
41876;DHT22;27555;50.808;4.402;2023-01-24T16:33:16;4.50;99.90
41876;DHT22;27555;50.808;4.402;2023-01-24T16:35:42;4.60;99.90
41876;DHT22;27555;50.808;4.402;2023-01-24T16:38:10;4.70;99.90
41876;DHT22;27555;50.808;4.402;2023-01-24T16:40:36;4.70;99.90
41876;DHT22;27555;50.808;4.402;2023-01-24T16:43:03;4.70;99.90
41876;DHT22;27555;50.808;4.402;2023-01-24T16:45:29;4.70;99.90
41876;DHT22;27555;50.808;4.402;2023-01-24T16:47:55;4.60;99.90
41876;DHT22;27555;50.808;4.402;2023-01-24T16:50:20;4.50;99.90
41876;DHT22;27555;50.808;4.402;2023-01-24T16:52:46;4.40;99.90
41876;DHT22;27555;50.808;4.402;2023-01-24T16:55:13;4.30;99.90
41876;DHT22;27555;50.808;4.402;2023-01-24T16:57:39;4.40;99.90
41876;DHT22;27555;50.808;4.402;2023-01-24T17:00:06;4.20;99.90
41876;DHT22;27555;50.808;4.402;2023-01-24T17:02:36;3.90;99.90
41876;DHT22;27555;50.808;4.402;2023-01-24T17:05:01;3.70;99.90
41876;DHT22;27555;50.808;4.402;2023-01-24T17:07:27;3.60;99.90
41876;DHT22;27555;50.808;4.402;2023-01-24T17:09:52;3.80;99.90
41876;DHT22;27555;50.808;4.402;2023-01-24T17:12:18;4.20;99.90
41876;DHT22;27555;50.808;4.402;2023-01-24T17:14:43;3.70;99.90
41876;DHT22;27555;50.808;4.402;2023-01-24T17:17:10;3.40;99.90
41876;DHT22;27555;50.808;4.402;2023-01-24T17:19:35;3.60;99.90
41876;DHT22;27555;50.808;4.402;2023-01-24T17:22:02;4.00;99.90
41876;DHT22;27555;50.808;4.402;2023-01-24T17:24:28;3.40;99.90
41876;DHT22;27555;50.808;4.402;2023-01-24T17:26:55;3.10;99.90
41876;DHT22;27555;50.808;4.402;2023-01-24T17:29:20;3.00;99.90
41876;DHT22;27555;50.808;4.402;2023-01-24T17:31:51;3.40;99.90
41876;DHT22;27555;50.808;4.402;2023-01-24T17:34:16;3.90;99.90
41876;DHT22;27555;50.808;4.402;2023-01-24T17:36:42;3.80;99.90
41876;DHT22;27555;50.808;4.402;2023-01-24T17:39:08;3.80;99.90
41876;DHT22;27555;50.808;4.402;2023-01-24T17:41:34;3.90;99.90
41876;DHT22;27555;50.808;4.402;2023-01-24T17:43:59;3.90;99.90
41876;DHT22;27555;50.808;4.402;2023-01-24T17:46:25;3.80;99.90
41876;DHT22;27555;50.808;4.402;2023-01-24T17:48:50;3.70;99.90
41876;DHT22;27555;50.808;4.402;2023-01-24T17:51:17;3.90;99.90
41876;DHT22;27555;50.808;4.402;2023-01-24T17:53:43;4.00;99.90
41876;DHT22;27555;50.808;4.402;2023-01-24T17:56:11;4.00;99.90
41876;DHT22;27555;50.808;4.402;2023-01-24T17:58:38;4.10;99.90
41876;DHT22;27555;50.808;4.402;2023-01-24T18:01:04;4.30;99.90
41876;DHT22;27555;50.808;4.402;2023-01-24T18:03:30;4.40;99.90
41876;DHT22;27555;50.808;4.402;2023-01-24T18:05:56;4.60;99.90
41876;DHT22;27555;50.808;4.402;2023-01-24T18:08:23;4.40;99.90
41876;DHT22;27555;50.808;4.402;2023-01-24T18:10:49;4.60;99.90
41876;DHT22;27555;50.808;4.402;2023-01-24T18:13:15;4.70;99.90
41876;DHT22;27555;50.808;4.402;2023-01-24T18:15:42;4.80;99.90